Time;durP1;ratioP1;P1;durP2;ratioP2;P2;SDS_P1;SDS_P2;PMS_P1;PMS_P2;Temp;Humidity;BMP_temperature;BMP_pressure;BME280_temperature;BME280_humidity;BME280_pressure;Samples;Min_cycle;Max_cycle;Signal;HPM_P1;HPM_P2
2022/01/24 00:02:23;;;;;;;48.42;21.17;;;;;;;-2.97;100.00;101927.25;4885702;29;20055;-56
2022/01/24 00:05:09;;;;;;;49.90;20.65;;;;;;;-3.07;100.00;101934.31;4874647;29;20116;-55
2022/01/24 00:07:54;;;;;;;47.42;21.38;;;;;;;-3.24;100.00;101930.56;4875324;29;20536;-52
2022/01/24 00:10:40;;;;;;;43.25;19.00;;;;;;;-3.21;100.00;101922.13;4888722;29;20055;-56
2022/01/24 00:27:49;;;;;;;47.60;19.88;;;;;;;-2.90;100.00;101938.94;4876835;29;20047;-65
2022/01/24 00:30:34;;;;;;;48.78;20.95;;;;;;;-2.77;100.00;101934.69;4885985;29;20545;-59
2022/01/24 00:33:19;;;;;;;53.05;21.83;;;;;;;-2.68;100.00;101945.69;4885111;29;20055;-56
2022/01/24 00:36:04;;;;;;;48.75;21.98;;;;;;;-2.67;100.00;101923.22;4886697;29;20543;-68
2022/01/24 00:38:49;;;;;;;52.05;22.17;;;;;;;-2.66;100.00;101925.91;4885831;29;20115;-55
2022/01/24 00:42:30;;;;;;;51.35;22.33;;;;;;;-2.52;100.00;101938.13;4872776;29;20055;-55
2022/01/24 00:44:50;;;;;;;55.33;23.85;;;;;;;-2.50;100.00;101922.66;4885466;29;20050;-56
2022/01/24 00:56:43;;;;;;;56.47;25.08;;;;;;;-2.19;100.00;101935.13;4861369;29;20052;-58
2022/01/24 00:59:30;;;;;;;52.60;24.67;;;;;;;-2.20;100.00;101938.53;4870136;29;20548;-54
2022/01/24 01:02:17;;;;;;;56.45;24.85;;;;;;;-2.17;100.00;101949.09;4877422;29;20886;-57
2022/01/24 01:20:16;;;;;;;85.78;39.83;;;;;;;-1.77;100.00;101966.50;4864758;29;20761;-59
2022/01/24 01:23:01;;;;;;;78.30;35.78;;;;;;;-1.78;100.00;101975.06;4878307;29;20257;-61
2022/01/24 01:25:47;;;;;;;77.35;37.83;;;;;;;-1.86;100.00;101963.28;4872283;29;21159;-54
2022/01/24 01:28:34;;;;;;;79.18;38.13;;;;;;;-1.92;100.00;101962.91;4869359;29;20079;-59
2022/01/24 01:31:39;;;;;;;62.40;29.67;;;;;;;-1.68;100.00;101969.66;4895131;29;20073;-56
2022/01/24 01:52:19;;;;;;;52.92;22.52;;;;;;;-1.50;100.00;101943.91;4880483;29;20136;-56
2022/01/24 01:56:01;;;;;;;45.77;20.23;;;;;;;-1.23;100.00;101976.84;4878428;29;20192;-58
2022/01/24 01:58:46;;;;;;;46.60;20.48;;;;;;;-1.20;100.00;101977.00;4881693;29;20059;-55
2022/01/24 02:01:31;;;;;;;47.00;20.05;;;;;;;-1.37;100.00;101976.00;4875748;29;20533;-65
2022/01/24 02:04:16;;;;;;;50.45;21.60;;;;;;;-1.35;100.00;101971.75;4876833;29;20083;-56
2022/01/24 02:07:02;;;;;;;44.47;20.42;;;;;;;-1.26;100.00;101987.94;4883693;29;20089;-61
2022/01/24 02:09:47;;;;;;;43.65;20.42;;;;;;;-1.26;100.00;101976.66;4873999;29;20159;-54
2022/01/24 02:12:31;;;;;;;44.92;20.98;;;;;;;-1.26;100.00;101963.63;4874370;29;20646;-54
2022/01/24 02:15:42;;;;;;;46.30;20.92;;;;;;;-1.16;100.00;101974.72;4890057;29;20047;-56
2022/01/24 02:21:45;;;;;;;47.50;20.42;;;;;;;-1.18;100.00;101978.03;4900120;29;20605;-58
2022/01/24 02:24:53;;;;;;;44.00;19.88;;;;;;;-1.19;100.00;101971.91;4889767;29;20162;-59
2022/01/24 02:27:45;;;;;;;44.50;19.15;;;;;;;-1.21;100.00;101965.72;4900965;29;20705;-55
2022/01/24 02:30:56;;;;;;;41.60;19.33;;;;;;;-1.29;100.00;101963.44;4893572;29;20111;-65
2022/01/24 02:33:44;;;;;;;41.97;19.08;;;;;;;-1.38;100.00;101958.56;4893625;29;20050;-66
2022/01/24 02:36:30;;;;;;;39.25;18.52;;;;;;;-1.36;100.00;101969.06;4895363;29;20137;-60
2022/01/24 02:39:43;;;;;;;41.28;18.55;;;;;;;-1.32;100.00;101965.84;4894049;29;20564;-54
2022/01/24 02:48:33;;;;;;;38.38;18.20;;;;;;;-1.37;100.00;101970.78;4894573;29;20481;-55
2022/01/24 02:52:01;;;;;;;44.00;19.20;;;;;;;-1.39;100.00;101964.56;4876461;29;20716;-56
2022/01/24 02:54:29;;;;;;;43.50;18.67;;;;;;;-1.53;100.00;101961.91;4875988;29;20493;-55
2022/01/24 02:57:15;;;;;;;39.13;18.02;;;;;;;-1.55;100.00;101967.03;4874262;29;20487;-60
2022/01/24 03:00:01;;;;;;;39.53;19.40;;;;;;;-1.56;100.00;101966.91;4887737;29;20063;-59
2022/01/24 03:02:45;;;;;;;39.17;17.73;;;;;;;-1.54;100.00;101957.53;4888542;29;20091;-51
2022/01/24 03:05:31;;;;;;;41.33;18.60;;;;;;;-1.53;100.00;101960.22;4881896;29;20517;-57
2022/01/24 03:08:16;;;;;;;40.80;18.65;;;;;;;-1.62;100.00;101945.75;4891857;29;20139;-55
2022/01/24 03:11:01;;;;;;;37.50;17.80;;;;;;;-1.67;100.00;101931.53;4888776;29;20060;-66
2022/01/24 03:13:46;;;;;;;35.67;16.85;;;;;;;-1.61;100.00;101951.06;4890183;29;20059;-63
2022/01/24 03:16:31;;;;;;;;;;;;;;;-1.58;100.00;101959.03;4874598;29;20114;-63
2022/01/24 03:19:16;;;;;;;39.90;17.95;;;;;;;-1.65;100.00;101975.06;4874915;29;20017;-64
2022/01/24 03:22:02;;;;;;;45.13;19.45;;;;;;;-1.78;100.00;101966.38;4870684;29;20552;-57
2022/01/24 03:24:49;;;;;;;44.08;19.77;;;;;;;-1.70;100.00;101973.84;4871923;29;20067;-54
2022/01/24 03:27:34;;;;;;;46.63;19.30;;;;;;;-1.82;100.00;101948.78;4881158;29;20080;-57
2022/01/24 03:30:18;;;;;;;42.83;20.15;;;;;;;-1.79;100.00;101959.38;4888237;29;20079;-68
2022/01/24 03:33:04;;;;;;;43.88;19.90;;;;;;;-1.87;100.00;101955.38;4872408;29;20047;-57
2022/01/24 03:35:50;;;;;;;42.05;18.77;;;;;;;-2.00;100.00;101942.41;4888004;29;20055;-54
2022/01/24 03:38:35;;;;;;;44.70;20.60;;;;;;;-1.88;100.00;101959.69;4892454;29;20083;-57
2022/01/24 03:41:20;;;;;;;43.58;19.98;;;;;;;-1.85;100.00;101962.50;4895134;29;20200;-56
2022/01/24 03:44:07;;;;;;;48.45;20.23;;;;;;;-1.84;100.00;101956.50;4892693;29;20052;-59
2022/01/24 03:49:45;;;;;;;48.60;19.60;;;;;;;-2.02;100.00;101933.63;4886720;29;20051;-58
2022/01/24 03:52:32;;;;;;;45.65;20.23;;;;;;;-1.98;100.00;101948.63;4888013;29;20525;-53
2022/01/24 03:55:17;;;;;;;44.05;19.52;;;;;;;-2.00;100.00;101945.91;4890184;29;20079;-61
2022/01/24 03:58:02;;;;;;;45.95;19.13;;;;;;;-1.97;100.00;101956.47;4888487;29;20075;-57
2022/01/24 04:00:47;;;;;;;43.28;20.17;;;;;;;-1.93;100.00;101958.47;4885833;29;20056;-61
2022/01/24 04:03:33;;;;;;;46.50;19.60;;;;;;;-1.92;100.00;101951.59;4885810;29;20048;-64
2022/01/24 04:06:18;;;;;;;44.45;19.00;;;;;;;-2.05;100.00;101955.09;4874275;29;20079;-59
2022/01/24 04:09:02;;;;;;;45.78;19.30;;;;;;;-2.13;100.00;101952.81;4873040;29;20128;-58
2022/01/24 04:11:51;;;;;;;43.78;19.35;;;;;;;-2.16;100.00;101940.53;4888774;29;20056;-55
2022/01/24 04:14:52;;;;;;;51.30;21.58;;;;;;;-2.19;100.00;101944.63;4884941;29;20103;-52
2022/01/24 04:17:44;;;;;;;44.53;18.77;;;;;;;-2.25;100.00;101934.72;4873905;29;20055;-58
2022/01/24 04:23:35;;;;;;;42.63;19.08;;;;;;;-2.48;100.00;101949.59;4886721;29;20059;-55
2022/01/24 04:26:20;;;;;;;44.35;18.92;;;;;;;-2.72;100.00;101947.97;4888945;29;20116;-54
2022/01/24 04:29:07;;;;;;;46.70;20.45;;;;;;;-2.70;100.00;101946.38;4893116;29;20083;-67
2022/01/24 04:31:52;;;;;;;43.53;18.88;;;;;;;-2.63;100.00;101949.50;4892569;29;20453;-61
2022/01/24 04:34:37;;;;;;;;;;;;;;;-2.65;100.00;101951.06;4873370;29;20421;-59
2022/01/24 04:37:21;;;;;;;43.70;18.55;;;;;;;-2.72;100.00;101950.56;4871794;29;20415;-54
2022/01/24 04:40:09;;;;;;;40.35;17.48;;;;;;;-2.75;100.00;101959.06;4880973;29;20711;-59
2022/01/24 04:43:02;;;;;;;42.50;18.90;;;;;;;-2.75;100.00;101952.97;4884370;29;20067;-55
2022/01/24 04:46:03;;;;;;;42.42;18.55;;;;;;;-2.69;100.00;101966.38;4890818;29;20536;-57
2022/01/24 04:52:07;;;;;;;39.78;17.60;;;;;;;-2.72;100.00;101959.28;4873292;29;20151;-53
2022/01/24 04:54:52;;;;;;;41.55;18.00;;;;;;;-2.74;100.00;101967.72;4889221;29;20104;-58
2022/01/24 04:57:38;;;;;;;39.25;17.65;;;;;;;-2.96;100.00;101955.03;4891895;29;20063;-57
2022/01/24 05:00:23;;;;;;;43.75;18.85;;;;;;;-2.83;100.00;101972.31;4891527;29;20056;-57
2022/01/24 05:03:08;;;;;;;44.42;17.50;;;;;;;-2.76;100.00;101959.88;4882906;29;20119;-54
2022/01/24 05:05:53;;;;;;;41.15;18.40;;;;;;;-2.59;100.00;101968.75;4892623;29;20601;-54
2022/01/24 05:08:38;;;;;;;41.38;17.42;;;;;;;-2.56;100.00;101961.19;4882835;29;20075;-64
2022/01/24 05:11:35;;;;;;;;;;;;;;;-2.50;100.00;101972.88;4874523;29;20048;-53
2022/01/24 05:23:37;;;;;;;40.38;17.60;;;;;;;-2.29;100.00;101971.69;4890835;29;20056;-55
2022/01/24 05:26:22;;;;;;;48.60;21.38;;;;;;;-2.27;100.00;101977.91;4885957;29;20123;-57
2022/01/24 05:29:06;;;;;;;38.78;17.02;;;;;;;-2.19;100.00;101978.38;4889854;29;20056;-53
2022/01/24 05:31:51;;;;;;;37.63;17.65;;;;;;;-2.29;100.00;101968.22;4878076;29;20565;-57
2022/01/24 05:34:36;;;;;;;;;;;;;;;-2.36;100.00;101966.00;4884753;29;20055;-58
2022/01/24 05:37:21;;;;;;;37.72;15.73;;;;;;;-2.44;100.00;101974.97;4873329;29;19938;-58
2022/01/24 05:40:07;;;;;;;34.67;15.20;;;;;;;-2.51;100.00;101977.97;4874023;29;20104;-58
2022/01/24 05:42:52;;;;;;;38.38;15.63;;;;;;;-2.35;100.00;101989.47;4881735;29;20063;-64
2022/01/24 05:45:37;;;;;;;36.55;15.55;;;;;;;-2.25;100.00;101981.47;4889132;29;20192;-61
2022/01/24 05:48:23;;;;;;;36.60;14.70;;;;;;;-2.21;100.00;101980.88;4885443;29;20092;-60
2022/01/24 05:51:08;;;;;;;35.28;15.00;;;;;;;-2.28;100.00;101983.00;4863793;29;20064;-58
2022/01/24 05:53:54;;;;;;;43.83;13.35;;;;;;;-2.48;100.00;101980.78;4890258;29;20096;-59
2022/01/24 05:56:39;;;;;;;35.95;14.30;;;;;;;-2.60;100.00;101980.88;4888188;29;20071;-58
2022/01/24 05:59:24;;;;;;;40.83;15.40;;;;;;;-2.82;100.00;101982.78;4887945;29;20084;-58
2022/01/24 06:02:09;;;;;;;37.90;16.20;;;;;;;-2.62;100.00;101976.34;4889777;29;20047;-66
2022/01/24 06:04:54;;;;;;;40.65;16.15;;;;;;;-2.48;100.00;101981.69;4888770;29;20163;-58
2022/01/24 06:07:39;;;;;;;47.55;19.02;;;;;;;-2.36;100.00;101985.09;4885158;29;20147;-56
2022/01/24 06:10:23;;;;;;;47.22;17.67;;;;;;;-2.35;100.00;101992.09;4876851;29;20052;-56
2022/01/24 06:13:08;;;;;;;37.55;13.88;;;;;;;-2.35;100.00;101994.69;4887070;29;20290;-56
2022/01/24 06:15:53;;;;;;;39.67;15.45;;;;;;;-2.28;100.00;101990.78;4891607;29;20080;-53
2022/01/24 06:18:38;;;;;;;;;;;;;;;-2.30;100.00;101987.19;4878228;29;20480;-58
2022/01/24 06:21:23;;;;;;;40.72;15.80;;;;;;;-2.29;100.00;101989.88;4886808;29;20027;-65
2022/01/24 06:24:08;;;;;;;41.67;16.50;;;;;;;-2.20;100.00;101984.41;4887621;29;20046;-61
2022/01/24 06:26:53;;;;;;;38.60;16.23;;;;;;;-2.18;100.00;101978.50;4873586;29;20059;-58
2022/01/24 06:29:38;;;;;;;39.53;15.80;;;;;;;-2.21;100.00;101986.06;4890639;29;20084;-59
2022/01/24 06:32:23;;;;;;;41.65;15.82;;;;;;;-2.23;100.00;101977.31;4889234;29;20228;-57
2022/01/24 06:35:10;;;;;;;42.78;16.63;;;;;;;-2.20;100.00;101980.09;4888668;29;20055;-56
2022/01/24 06:37:55;;;;;;;41.17;16.67;;;;;;;-2.21;100.00;101972.22;4887125;29;20128;-60
2022/01/24 06:40:39;;;;;;;43.60;16.75;;;;;;;-2.23;100.00;101974.69;4888154;29;20051;-67
2022/01/24 06:43:24;;;;;;;42.03;17.13;;;;;;;-2.37;100.00;101979.78;4890600;29;20119;-56
2022/01/24 06:46:09;;;;;;;40.33;16.08;;;;;;;-2.26;100.00;101973.63;4888007;29;20104;-57
2022/01/24 06:48:54;;;;;;;48.10;17.17;;;;;;;-2.21;100.00;101983.47;4888169;29;20051;-57
2022/01/24 06:51:39;;;;;;;39.60;16.75;;;;;;;-2.20;100.00;101969.72;4891522;29;20094;-59
2022/01/24 06:54:24;;;;;;;40.28;17.42;;;;;;;-2.25;100.00;101973.69;4883439;29;20063;-58
2022/01/24 06:57:11;;;;;;;;;;;;;;;-2.13;100.00;101976.22;4890353;29;20197;-56
2022/01/24 07:00:00;;;;;;;38.30;16.73;;;;;;;-2.27;100.00;101988.28;4871413;29;20062;-64
2022/01/24 07:02:45;;;;;;;38.33;16.85;;;;;;;-2.19;100.00;101987.09;4884323;29;20101;-54
2022/01/24 07:05:31;;;;;;;39.92;16.55;;;;;;;-1.97;100.00;101992.00;4887866;29;20140;-58
2022/01/24 07:08:16;;;;;;;38.25;16.05;;;;;;;-1.91;100.00;101977.69;4890168;29;20055;-56
2022/01/24 07:11:01;;;;;;;41.08;16.92;;;;;;;-1.67;100.00;101986.16;4890764;29;20525;-69
2022/01/24 07:13:46;;;;;;;33.63;15.57;;;;;;;-1.43;100.00;101977.28;4892195;29;20056;-66
2022/01/24 07:16:48;;;;;;;41.45;17.27;;;;;;;-1.17;100.00;101987.63;4891670;29;20108;-67
2022/01/24 07:19:33;;;;;;;42.50;16.95;;;;;;;-1.03;100.00;101985.06;4880337;29;20374;-66
2022/01/24 07:22:19;;;;;;;48.40;19.73;;;;;;;-1.21;100.00;101986.53;4892664;29;20173;-67
2022/01/24 07:25:04;;;;;;;31.70;15.05;;;;;;;-1.36;100.00;101990.78;4890808;29;20056;-66
2022/01/24 07:27:49;;;;;;;37.67;15.38;;;;;;;-1.46;100.00;101970.19;4890184;29;20105;-63
2022/01/24 07:30:34;;;;;;;36.67;16.77;;;;;;;-1.44;100.00;101973.81;4865929;29;20059;-61
2022/01/24 07:33:19;;;;;;;39.42;17.13;;;;;;;-1.55;100.00;101979.13;4892074;29;20789;-60
2022/01/24 07:36:04;;;;;;;37.25;15.85;;;;;;;-1.50;100.00;101986.41;4891581;29;20140;-61
2022/01/24 07:38:50;;;;;;;39.22;16.55;;;;;;;-1.42;100.00;101979.97;4891091;29;20079;-57
2022/01/24 07:41:43;;;;;;;37.60;17.08;;;;;;;-1.31;100.00;101983.25;4890572;29;20546;-70
2022/01/24 07:44:35;;;;;;;36.08;15.88;;;;;;;-1.11;100.00;101973.28;4881157;29;20096;-62
2022/01/24 07:47:20;;;;;;;;;;;;;;;-1.02;100.00;101986.84;4891821;29;20083;-63
2022/01/24 07:50:05;;;;;;;37.70;16.67;;;;;;;-1.09;100.00;101971.69;4891075;29;19930;-67
2022/01/24 07:52:50;;;;;;;35.60;15.65;;;;;;;-1.15;100.00;101980.81;4891863;29;20071;-57
2022/01/24 07:55:35;;;;;;;;;;;;;;;-0.98;100.00;101991.44;4876456;29;20101;-58
2022/01/24 07:58:20;;;;;;;39.60;18.17;;;;;;;-1.46;100.00;101988.41;4885982;29;20132;-60
2022/01/24 08:01:05;;;;;;;48.65;18.42;;;;;;;-2.00;100.00;101978.78;4888528;29;20819;-58
2022/01/24 08:03:51;;;;;;;43.90;19.23;;;;;;;-1.83;100.00;101971.28;4886852;29;20058;-58
2022/01/24 08:06:36;;;;;;;41.33;18.40;;;;;;;-1.60;100.00;101996.13;4887179;29;20524;-71
2022/01/24 08:09:23;;;;;;;41.08;17.08;;;;;;;-1.83;100.00;101997.28;4891946;29;20059;-72
2022/01/24 08:12:08;;;;;;;38.25;17.38;;;;;;;-2.46;100.00;101985.28;4891558;29;20055;-59
2022/01/24 08:14:53;;;;;;;40.33;18.08;;;;;;;-2.46;100.00;101990.47;4888927;29;20055;-61
2022/01/24 08:17:38;;;;;;;41.67;17.30;;;;;;;-2.32;100.00;101978.38;4892875;29;20069;-62
2022/01/24 08:20:23;;;;;;;40.55;16.98;;;;;;;-1.94;100.00;101985.28;4889967;29;20055;-65
2022/01/24 08:23:10;;;;;;;37.35;16.52;;;;;;;-1.58;100.00;101979.81;4891671;29;20068;-63
2022/01/24 08:25:55;;;;;;;35.85;16.20;;;;;;;-1.45;100.00;101986.72;4893254;29;20092;-58
2022/01/24 08:28:40;;;;;;;35.00;15.60;;;;;;;-1.40;100.00;101970.59;4891509;29;20421;-68
2022/01/24 08:31:25;;;;;;;42.85;18.65;;;;;;;-1.09;100.00;101989.91;4889569;29;20056;-58
2022/01/24 08:34:09;;;;;;;41.53;18.70;;;;;;;-0.94;100.00;101988.22;4890788;29;20096;-57
2022/01/24 08:36:54;;;;;;;46.80;18.80;;;;;;;-0.84;100.00;101985.38;4891392;29;20114;-57
2022/01/24 08:39:39;;;;;;;40.55;18.45;;;;;;;-0.96;100.00;101989.84;4891189;29;20171;-57
2022/01/24 08:48:31;;;;;;;42.22;19.65;;;;;;;-1.13;100.00;101976.59;4888672;29;20044;-58
2022/01/24 08:51:20;;;;;;;43.22;19.20;;;;;;;-1.06;100.00;101981.38;4888051;29;20210;-57
2022/01/24 08:54:07;;;;;;;47.88;20.23;;;;;;;-0.88;100.00;101982.47;4890094;29;20109;-57
2022/01/24 08:56:54;;;;;;;43.28;19.15;;;;;;;-0.71;100.00;101974.88;4890989;29;20581;-55
2022/01/24 08:59:40;;;;;;;45.42;20.35;;;;;;;-0.67;100.00;101965.56;4888033;29;20453;-67
2022/01/24 09:02:25;;;;;;;46.03;19.80;;;;;;;-0.57;100.00;101971.41;4876834;29;20488;-54
2022/01/24 09:05:13;;;;;;;49.20;21.60;;;;;;;-0.41;100.00;101970.56;4873561;29;20055;-64
2022/01/24 09:07:58;;;;;;;54.28;23.00;;;;;;;-0.35;100.00;101963.13;4875240;29;20132;-58
2022/01/24 09:10:46;;;;;;;55.25;23.20;;;;;;;-0.28;100.00;101954.81;4889636;29;20535;-59
2022/01/24 09:13:32;;;;;;;52.80;22.20;;;;;;;-0.28;100.00;101967.84;4890278;29;20051;-72
2022/01/24 09:16:17;;;;;;;52.42;22.25;;;;;;;-0.18;100.00;101958.09;4876092;29;20473;-62
2022/01/24 09:19:04;;;;;;;56.08;24.20;;;;;;;-0.10;100.00;101956.81;4872172;29;20499;-66
2022/01/24 09:21:50;;;;;;;49.35;22.23;;;;;;;-0.09;100.00;101950.78;4882749;29;20172;-63
2022/01/24 09:24:36;;;;;;;57.67;24.13;;;;;;;-0.30;100.00;101946.03;4879315;29;20112;-62
2022/01/24 09:27:21;;;;;;;49.67;21.90;;;;;;;-0.48;100.00;101942.34;4874655;29;20124;-64
2022/01/24 09:30:09;;;;;;;54.10;23.33;;;;;;;-0.34;100.00;101937.16;4883553;29;20192;-62
2022/01/24 09:32:55;;;;;;;48.15;21.95;;;;;;;-0.27;100.00;101936.69;4882289;29;20466;-60
2022/01/24 09:35:44;;;;;;;55.35;22.45;;;;;;;-0.37;100.00;101936.06;4890884;29;20054;-65
2022/01/24 09:38:32;;;;;;;53.20;23.58;;;;;;;-0.42;100.00;101934.91;4893356;29;20091;-61
2022/01/24 09:41:17;;;;;;;56.90;24.05;;;;;;;-0.81;100.00;101938.69;4891755;29;20394;-73
2022/01/24 09:44:05;;;;;;;60.13;24.73;;;;;;;-0.77;100.00;101940.66;4888530;29;20070;-65
2022/01/24 09:46:50;;;;;;;60.33;25.98;;;;;;;-1.10;100.00;101929.94;4869429;29;20055;-57
2022/01/24 09:49:35;;;;;;;64.75;26.63;;;;;;;-1.45;100.00;101926.88;4892220;29;20052;-58
2022/01/24 09:52:21;;;;;;;52.95;23.08;;;;;;;-1.71;100.00;101930.44;4887555;29;20103;-54
2022/01/24 09:55:08;;;;;;;51.03;21.83;;;;;;;-2.54;100.00;101915.47;4890988;29;20116;-60
2022/01/24 09:57:52;;;;;;;41.45;20.38;;;;;;;-2.46;100.00;101904.75;4885519;29;20060;-55
2022/01/24 10:00:42;;;;;;;46.58;20.05;;;;;;;-2.30;100.00;101911.88;4883370;29;20535;-65
2022/01/24 10:03:29;;;;;;;44.53;18.90;;;;;;;-2.06;100.00;101926.44;4880696;29;20436;-61
2022/01/24 10:06:14;;;;;;;46.47;19.83;;;;;;;-1.71;100.00;101916.53;4890320;29;20135;-70
2022/01/24 10:09:07;;;;;;;45.78;19.90;;;;;;;-1.55;100.00;101917.59;4875847;29;20144;-64
2022/01/24 10:16:24;;;;;;;40.58;18.63;;;;;;;-1.33;100.00;101914.63;4890021;29;20077;-58
2022/01/24 10:18:28;;;;;;;50.92;22.02;;;;;;;-0.96;100.00;101910.81;4880647;29;20056;-64
2022/01/24 10:21:17;;;;;;;53.53;21.88;;;;;;;-1.43;100.00;101897.53;4880155;29;20151;-64
2022/01/24 10:24:03;;;;;;;49.58;23.00;;;;;;;-1.22;100.00;101895.34;4884888;29;20088;-69
2022/01/24 10:27:23;;;;;;;56.17;23.88;;;;;;;-0.86;100.00;101894.94;4873070;29;20047;-61
2022/01/24 10:30:13;;;;;;;54.33;23.15;;;;;;;-1.30;100.00;101900.09;4886204;29;20151;-59
2022/01/24 10:33:02;;;;;;;58.78;25.08;;;;;;;-2.16;100.00;101905.84;4878959;29;20055;-64
2022/01/24 10:35:47;;;;;;;60.38;25.20;;;;;;;-1.92;100.00;101894.41;4887356;29;20469;-61
2022/01/24 10:38:44;;;;;;;71.28;30.00;;;;;;;-2.21;100.00;101900.34;4886335;29;20059;-67
2022/01/24 10:41:49;;;;;;;63.40;27.23;;;;;;;-2.21;100.00;101896.88;4882825;29;20064;-60
2022/01/24 10:44:36;;;;;;;69.90;30.25;;;;;;;-2.04;100.00;101880.63;4888827;29;20055;-63
2022/01/24 10:47:30;;;;;;;69.78;27.38;;;;;;;-1.52;100.00;101888.28;4876052;29;20067;-60
2022/01/24 10:50:30;;;;;;;62.47;28.23;;;;;;;-1.01;100.00;101888.81;4881390;29;20081;-65
2022/01/24 10:53:16;;;;;;;70.65;29.20;;;;;;;-1.13;100.00;101881.19;4872670;29;20100;-62
2022/01/24 10:56:00;;;;;;;73.05;30.52;;;;;;;-1.19;100.00;101875.59;4892057;29;20574;-61
2022/01/24 10:58:45;;;;;;;;;;;;;;;-1.11;100.00;101876.97;4893011;29;20532;-62
2022/01/24 11:01:31;;;;;;;67.28;27.58;;;;;;;-1.23;100.00;101872.75;4892514;29;19926;-73
2022/01/24 11:04:17;;;;;;;78.35;31.65;;;;;;;-1.31;100.00;101863.56;4890820;29;20482;-65
2022/01/24 11:07:03;;;;;;;84.10;33.88;;;;;;;-1.49;100.00;101855.56;4889529;29;20055;-71
2022/01/24 11:09:48;;;;;;;75.88;32.35;;;;;;;-1.20;100.00;101852.09;4882580;29;20413;-65
2022/01/24 11:12:32;;;;;;;84.88;35.15;;;;;;;-1.06;100.00;101854.69;4889824;29;20062;-72
2022/01/24 11:15:17;;;;;;;95.20;37.92;;;;;;;-1.62;100.00;101859.94;4890846;29;20104;-60
2022/01/24 11:18:03;;;;;;;92.57;37.70;;;;;;;-1.43;100.00;101855.00;4887699;29;20091;-70
2022/01/24 11:20:49;;;;;;;91.40;36.63;;;;;;;-1.11;100.00;101850.06;4856550;29;20083;-65
2022/01/24 11:23:39;;;;;;;86.72;36.67;;;;;;;-1.18;100.00;101840.97;4892545;29;20119;-60
2022/01/24 11:26:24;;;;;;;98.30;40.85;;;;;;;-1.49;100.00;101852.06;4891689;29;20835;-61
2022/01/24 11:29:11;;;;;;;88.97;38.40;;;;;;;-1.44;100.00;101855.81;4892850;29;20560;-69
2022/01/24 11:32:16;;;;;;;88.53;37.15;;;;;;;-1.10;100.00;101863.13;4875123;29;20434;-67
2022/01/24 11:35:02;;;;;;;85.00;36.05;;;;;;;-1.27;100.00;101849.97;4891887;29;20047;-67
2022/01/24 11:37:48;;;;;;;86.55;36.22;;;;;;;-1.05;100.00;101843.50;4891455;29;20055;-66
2022/01/24 11:40:58;;;;;;;75.50;32.08;;;;;;;-1.26;100.00;101842.22;4890604;29;20118;-70
2022/01/24 11:43:46;;;;;;;80.43;33.85;;;;;;;-1.31;100.00;101832.34;4892091;29;20051;-65
2022/01/24 11:46:48;;;;;;;81.75;34.60;;;;;;;-0.96;100.00;101819.69;4888224;29;20144;-64
2022/01/24 11:49:38;;;;;;;68.53;31.70;;;;;;;-0.68;100.00;101821.38;4890551;29;20044;-69
2022/01/24 11:52:34;;;;;;;84.63;33.83;;;;;;;-0.40;100.00;101824.72;4892244;29;20136;-65
2022/01/24 11:55:34;;;;;;;77.57;33.80;;;;;;;-0.48;100.00;101806.88;4882203;29;20051;-63
2022/01/24 11:58:28;;;;;;;81.20;33.08;;;;;;;-0.36;100.00;101821.50;4889391;29;20051;-63
2022/01/24 12:01:41;;;;;;;76.25;33.40;;;;;;;-0.20;100.00;101818.00;4887584;29;20100;-61
2022/01/24 12:04:48;;;;;;;80.82;32.83;;;;;;;-0.06;100.00;101815.38;4895613;29;20051;-67
2022/01/24 12:07:40;;;;;;;78.57;33.58;;;;;;;-0.48;100.00;101802.56;4886679;29;20119;-70
2022/01/24 12:10:34;;;;;;;79.30;34.97;;;;;;;-0.40;100.00;101806.50;4870438;29;20091;-63
2022/01/24 12:13:36;;;;;;;82.90;32.97;;;;;;;-0.27;100.00;101806.34;4889759;29;20581;-63
2022/01/24 12:16:37;;;;;;;87.07;36.03;;;;;;;-0.18;100.00;101803.38;4877170;29;20074;-68
2022/01/24 12:19:32;;;;;;;83.20;33.90;;;;;;;-0.12;100.00;101801.06;4892216;29;20052;-67
2022/01/24 12:22:38;;;;;;;81.67;35.03;;;;;;;-0.15;100.00;101798.31;4879410;29;20079;-64
2022/01/24 12:25:56;;;;;;;81.50;34.75;;;;;;;-0.33;100.00;101794.69;4892123;29;20292;-63
2022/01/24 12:28:41;;;;;;;84.43;33.28;;;;;;;-0.29;100.00;101788.84;4891378;29;20067;-62
2022/01/24 12:31:39;;;;;;;79.93;34.30;;;;;;;-0.18;100.00;101775.59;4883016;29;20054;-66
2022/01/24 12:34:27;;;;;;;81.43;35.10;;;;;;;-0.28;100.00;101788.94;4889955;29;20047;-66
2022/01/24 12:37:24;;;;;;;84.18;34.15;;;;;;;-0.20;100.00;101785.03;4887007;29;20177;-66
2022/01/24 12:40:11;;;;;;;75.78;33.00;;;;;;;-0.65;100.00;101776.38;4894746;29;20139;-55
2022/01/24 12:43:03;;;;;;;79.47;32.90;;;;;;;-0.77;100.00;101788.72;4875429;29;20402;-54
2022/01/24 12:48:50;;;;;;;79.47;33.05;;;;;;;-0.68;100.00;101790.13;4873695;29;20096;-58
2022/01/24 12:51:38;;;;;;;78.07;31.38;;;;;;;-0.68;100.00;101792.72;4890746;29;20051;-60
2022/01/24 12:54:29;;;;;;;71.80;30.58;;;;;;;-0.52;100.00;101792.78;4887293;29;20105;-57
2022/01/24 12:57:18;;;;;;;69.13;30.75;;;;;;;-0.38;100.00;101798.75;4886775;29;20056;-56
2022/01/24 13:00:14;;;;;;;68.85;29.60;;;;;;;-0.28;100.00;101793.22;4878829;29;20139;-70
2022/01/24 13:03:02;;;;;;;70.95;29.42;;;;;;;-0.50;100.00;101791.19;4894150;29;20064;-64
2022/01/24 13:05:48;;;;;;;48.08;20.67;;;;;;;-0.74;100.00;101779.34;4886710;29;20059;-61
2022/01/24 13:08:35;;;;;;;60.92;27.42;;;;;;;-0.74;100.00;101765.44;4884733;29;20096;-68
2022/01/24 13:11:21;;;;;;;47.97;21.98;;;;;;;-1.29;100.00;101760.47;4877432;29;20056;-62
2022/01/24 13:14:16;;;;;;;44.33;21.08;;;;;;;-1.55;100.00;101768.44;4883018;29;20423;-63
2022/01/24 13:23:27;;;;;;;54.00;23.85;;;;;;;-1.60;100.00;101788.09;4863056;29;20529;-59
2022/01/24 13:26:13;;;;;;;74.83;30.07;;;;;;;-2.07;100.00;101777.41;4880466;29;20056;-61
2022/01/24 13:29:05;;;;;;;61.38;27.00;;;;;;;-2.01;100.00;101789.88;4873660;29;20055;-58
2022/01/24 13:31:51;;;;;;;65.00;27.63;;;;;;;-2.00;100.00;101776.06;4877699;29;20055;-62
2022/01/24 13:34:36;;;;;;;60.45;26.88;;;;;;;-1.91;100.00;101780.13;4890046;29;20054;-55
2022/01/24 13:37:36;;;;;;;63.72;25.70;;;;;;;-1.78;100.00;101764.47;4873079;29;20072;-61
2022/01/24 13:40:58;;;;;;;60.10;26.63;;;;;;;-1.55;100.00;101784.03;4877866;29;20051;-61
2022/01/24 13:43:46;;;;;;;53.05;23.42;;;;;;;-1.43;100.00;101780.47;4828743;29;20080;-62
2022/01/24 13:46:40;;;;;;;53.40;23.38;;;;;;;-1.61;100.00;101794.09;4824728;29;20169;-62
2022/01/24 13:49:28;;;;;;;52.45;23.05;;;;;;;-1.89;100.00;101781.13;4848553;29;20431;-63
2022/01/24 13:52:13;;;;;;;47.95;22.00;;;;;;;-1.67;100.00;101783.31;4836787;29;20077;-58
2022/01/24 13:55:14;;;;;;;54.05;24.13;;;;;;;-1.85;100.00;101801.31;4829515;29;20057;-65
2022/01/24 13:57:59;;;;;;;49.15;22.75;;;;;;;-1.65;100.00;101789.50;4812272;29;20126;-66
2022/01/24 14:00:57;;;;;;;51.17;23.90;;;;;;;-1.48;100.00;101781.00;4836797;29;20144;-64
2022/01/24 14:03:55;;;;;;;44.70;20.40;;;;;;;-1.45;100.00;101779.50;4846561;29;20170;-58
2022/01/24 14:06:40;;;;;;;51.67;22.38;;;;;;;-1.66;100.00;101786.00;4846878;29;20252;-59
2022/01/24 14:09:39;;;;;;;45.63;20.95;;;;;;;-1.75;100.00;101776.75;4838620;29;20110;-58
2022/01/24 14:12:38;;;;;;;41.10;19.27;;;;;;;-1.90;100.00;101784.50;4816114;29;20097;-57
2022/01/24 14:15:39;;;;;;;50.95;20.88;;;;;;;-1.90;100.00;101789.72;4833377;29;20065;-56
2022/01/24 14:18:31;;;;;;;51.28;22.77;;;;;;;-1.83;100.00;101786.69;4832210;29;20480;-57
2022/01/24 14:21:18;;;;;;;57.05;22.88;;;;;;;-1.78;100.00;101785.25;4880755;29;20557;-59
2022/01/24 14:24:07;;;;;;;45.75;19.48;;;;;;;-1.75;100.00;101785.47;4879449;29;20449;-60
2022/01/24 14:26:55;;;;;;;56.92;22.65;;;;;;;-1.89;100.00;101788.03;4893010;29;20060;-63